Time;durP1;ratioP1;P1;durP2;ratioP2;P2;SDS_P1;SDS_P2;PMS_P1;PMS_P2;Temp;Humidity;BMP_temperature;BMP_pressure;BME280_temperature;BME280_humidity;BME280_pressure;Samples;Min_cycle;Max_cycle;Signal;HPM_P1;HPM_P2
2023/09/18 00:00:46;;;;;;;4.85;3.40;;;;;;;17.68;100.00;101491.41;5085620;28;20039;-71
2023/09/18 00:03:11;;;;;;;5.43;3.42;;;;;;;17.61;100.00;101496.06;5088903;28;20182;-70
2023/09/18 00:05:36;;;;;;;4.90;3.28;;;;;;;17.72;100.00;101494.50;5102275;28;20598;-70
2023/09/18 00:08:03;;;;;;;5.07;3.50;;;;;;;17.42;100.00;101465.34;5087318;28;20035;-70
2023/09/18 00:10:30;;;;;;;5.57;3.08;;;;;;;17.40;100.00;101474.81;5070815;28;20028;-70
2023/09/18 00:12:56;;;;;;;4.32;3.40;;;;;;;17.45;100.00;101475.78;5086439;28;20115;-70
2023/09/18 00:15:22;;;;;;;3.90;3.10;;;;;;;17.31;100.00;101475.09;5085996;28;20035;-70
2023/09/18 00:17:47;;;;;;;3.83;3.28;;;;;;;17.30;100.00;101478.88;5103604;28;20092;-70
2023/09/18 00:20:13;;;;;;;5.13;3.20;;;;;;;17.34;100.00;101480.09;5103583;28;20031;-70
2023/09/18 00:22:39;;;;;;;5.40;3.47;;;;;;;17.61;99.89;101479.75;5067232;28;20054;-70
2023/09/18 00:25:04;;;;;;;3.78;3.10;;;;;;;17.47;99.92;101456.50;5083695;28;20031;-71
2023/09/18 00:27:30;;;;;;;4.03;2.97;;;;;;;17.54;99.99;101479.00;5066817;28;20734;-70
2023/09/18 00:29:55;;;;;;;5.50;3.25;;;;;;;17.63;98.84;101485.81;5076007;28;20028;-70
2023/09/18 00:32:21;;;;;;;3.40;2.97;;;;;;;17.69;98.33;101481.34;5081391;28;20087;-71
2023/09/18 00:34:47;;;;;;;5.35;3.15;;;;;;;17.76;97.59;101487.53;5087084;28;20040;-70
2023/09/18 00:37:12;;;;;;;4.93;2.90;;;;;;;17.76;97.46;101482.94;5103881;28;20030;-70
2023/09/18 00:39:38;;;;;;;4.28;2.75;;;;;;;17.73;97.69;101468.94;5083982;28;20506;-70
2023/09/18 00:42:04;;;;;;;5.10;2.95;;;;;;;17.24;99.18;101452.59;5087743;28;20043;-70
2023/09/18 00:44:29;;;;;;;4.60;3.40;;;;;;;17.62;98.23;101465.09;5091777;28;20457;-70
2023/09/18 00:46:55;;;;;;;6.38;3.00;;;;;;;17.71;97.70;101468.31;5084027;28;20043;-70
2023/09/18 00:49:22;;;;;;;6.07;3.20;;;;;;;17.70;97.39;101464.78;5102631;28;20136;-70
2023/09/18 00:51:49;;;;;;;4.05;2.80;;;;;;;17.63;97.56;101461.31;5086168;28;20020;-70
2023/09/18 00:54:18;;;;;;;6.10;3.03;;;;;;;17.58;98.09;101442.97;5104031;28;20056;-70
2023/09/18 00:56:44;;;;;;;6.25;3.10;;;;;;;17.58;97.81;101440.25;5103279;28;20088;-70
2023/09/18 00:59:10;;;;;;;3.50;3.10;;;;;;;17.49;98.50;101444.34;5101704;28;20028;-70
2023/09/18 01:01:36;;;;;;;3.90;2.90;;;;;;;17.42;99.27;101450.91;5084734;28;20054;-70
2023/09/18 01:04:02;;;;;;;5.88;2.65;;;;;;;17.71;97.06;101460.97;5084828;28;20653;-70
2023/09/18 01:06:30;;;;;;;4.30;3.08;;;;;;;17.70;97.18;101459.31;5104843;28;20032;-71
2023/09/18 01:08:56;;;;;;;4.07;2.63;;;;;;;17.64;96.89;101457.53;5103704;28;20053;-70
2023/09/18 01:11:29;;;;;;;4.13;2.90;;;;;;;17.41;97.30;101446.53;5104563;28;20028;-70
2023/09/18 01:14:11;;;;;;;5.65;3.00;;;;;;;17.55;97.55;101448.03;5103749;28;20052;-70
2023/09/18 01:16:50;;;;;;;3.78;2.78;;;;;;;17.63;96.35;101457.75;5084148;28;20040;-70
2023/09/18 01:19:17;;;;;;;4.32;2.50;;;;;;;17.44;97.11;101446.91;5085192;28;20054;-70
2023/09/18 01:21:45;;;;;;;3.85;2.90;;;;;;;17.58;96.43;101440.25;5086015;28;20039;-70
2023/09/18 01:24:11;;;;;;;3.80;2.78;;;;;;;17.52;96.43;101453.94;5103902;28;20028;-70
2023/09/18 01:26:36;;;;;;;3.85;2.63;;;;;;;17.55;95.96;101443.41;5104326;28;20024;-70
2023/09/18 01:29:02;;;;;;;3.83;2.53;;;;;;;17.64;95.55;101446.63;5080102;28;20035;-70
2023/09/18 01:31:28;;;;;;;4.38;2.80;;;;;;;17.56;95.75;101446.97;5079604;28;20028;-70
2023/09/18 01:33:54;;;;;;;3.30;2.85;;;;;;;17.56;95.43;101446.97;5070275;28;20047;-70
2023/09/18 01:36:20;;;;;;;5.72;3.05;;;;;;;17.52;95.58;101443.06;5087647;28;20125;-71
2023/09/18 01:38:46;;;;;;;3.88;2.65;;;;;;;17.11;97.45;101415.50;5104372;28;20077;-70
2023/09/18 01:41:12;;;;;;;4.50;2.63;;;;;;;17.35;96.79;101430.06;5103700;28;20032;-70
2023/09/18 01:43:37;;;;;;;3.47;2.40;;;;;;;17.16;97.69;101422.16;5070800;28;20028;-70
2023/09/18 01:46:04;;;;;;;4.72;2.53;;;;;;;17.26;96.79;101406.97;5105408;28;20020;-70
2023/09/18 01:48:29;;;;;;;4.38;2.65;;;;;;;17.38;96.24;101418.75;5102833;28;20051;-70
2023/09/18 01:50:55;;;;;;;7.70;2.80;;;;;;;17.53;95.10;101407.44;5085260;28;20077;-70
2023/09/18 01:53:20;;;;;;;3.78;2.65;;;;;;;17.19;97.29;101402.69;5069133;28;20028;-70
2023/09/18 01:55:47;;;;;;;3.20;2.60;;;;;;;17.18;97.57;101406.44;5087083;28;20445;-70
2023/09/18 01:58:14;;;;;;;4.95;2.50;;;;;;;17.54;94.85;101403.66;5103957;28;20032;-70
2023/09/18 02:00:39;;;;;;;3.20;2.50;;;;;;;17.61;94.19;101389.94;5105560;28;20020;-70
2023/09/18 02:03:05;;;;;;;4.63;2.30;;;;;;;17.31;95.64;101384.50;5105194;28;20047;-69
2023/09/18 02:05:30;;;;;;;4.57;2.58;;;;;;;17.21;96.35;101385.03;5084037;28;20043;-70
2023/09/18 02:07:56;;;;;;;2.30;2.03;;;;;;;17.26;96.42;101385.22;5080889;28;20028;-71
2023/09/18 02:10:21;;;;;;;3.53;2.40;;;;;;;17.04;98.34;101382.13;5104807;28;20024;-71
2023/09/18 02:12:47;;;;;;;4.65;2.42;;;;;;;17.06;98.14;101374.59;5084894;28;20032;-71
2023/09/18 02:15:12;;;;;;;4.38;2.20;;;;;;;17.18;97.15;101371.91;5088260;28;20024;-70
2023/09/18 02:17:38;;;;;;;3.45;2.30;;;;;;;17.28;95.99;101366.75;5105206;28;20092;-69
2023/09/18 02:20:11;;;;;;;4.40;2.40;;;;;;;17.21;96.98;101366.00;5101757;28;20032;-70
2023/09/18 02:22:46;;;;;;;3.25;2.40;;;;;;;16.95;98.61;101363.63;5101823;28;20024;-71
2023/09/18 02:25:12;;;;;;;4.05;2.40;;;;;;;17.27;96.50;101348.78;5079380;28;20059;-70
2023/09/18 02:27:38;;;;;;;3.97;2.40;;;;;;;17.40;95.63;101347.75;5085821;28;20028;-70
2023/09/18 02:30:04;;;;;;;3.30;2.38;;;;;;;17.38;95.95;101345.28;5088264;28;20035;-71
2023/09/18 02:32:29;;;;;;;4.00;2.40;;;;;;;17.20;97.27;101345.31;5105579;28;20035;-70
2023/09/18 02:34:55;;;;;;;8.07;2.50;;;;;;;17.36;95.83;101344.69;5088637;28;20028;-70
2023/09/18 02:37:20;;;;;;;3.30;2.42;;;;;;;17.41;95.32;101333.09;5052934;28;20127;-70
2023/09/18 02:39:46;;;;;;;4.95;2.35;;;;;;;17.33;96.33;101336.97;5069879;28;20091;-70
2023/09/18 02:42:11;;;;;;;4.50;2.70;;;;;;;17.55;94.89;101339.19;5072398;28;20028;-70
2023/09/18 02:44:37;;;;;;;3.05;2.30;;;;;;;17.55;94.50;101329.13;5089843;28;20100;-70
2023/09/18 02:47:02;;;;;;;5.55;2.50;;;;;;;17.45;95.05;101339.75;5089549;28;20054;-71
2023/09/18 02:49:29;;;;;;;4.10;2.20;;;;;;;17.51;95.25;101327.09;5092414;28;20044;-70
2023/09/18 02:51:55;;;;;;;5.28;2.83;;;;;;;17.40;96.06;101312.41;5109732;28;20027;-70
2023/09/18 02:54:20;;;;;;;5.30;2.30;;;;;;;17.35;96.81;101313.09;5090431;28;20063;-70
2023/09/18 02:56:45;;;;;;;4.10;2.40;;;;;;;17.49;95.82;101313.72;5089871;28;20035;-70
2023/09/18 02:59:11;;;;;;;3.17;2.25;;;;;;;17.46;95.42;101302.50;5109069;28;20015;-70
2023/09/18 03:01:36;;;;;;;4.68;2.33;;;;;;;17.68;94.52;101311.78;5089446;28;20035;-70
2023/09/18 03:04:02;;;;;;;3.92;2.20;;;;;;;17.49;95.83;101304.75;5073801;28;20058;-70
2023/09/18 03:06:27;;;;;;;3.45;2.17;;;;;;;17.54;95.89;101307.59;5090286;28;20052;-70
2023/09/18 03:08:53;;;;;;;6.25;2.22;;;;;;;17.58;94.94;101292.44;5091501;28;20099;-70
2023/09/18 03:11:18;;;;;;;4.50;2.50;;;;;;;17.76;94.22;101302.44;5109262;28;20087;-70
2023/09/18 03:13:46;;;;;;;3.05;2.17;;;;;;;17.72;94.49;101295.81;5107551;28;20023;-70
2023/09/18 03:16:12;;;;;;;2.80;1.98;;;;;;;17.78;94.15;101300.31;5098710;28;20028;-70
2023/09/18 03:18:37;;;;;;;3.35;2.20;;;;;;;17.72;94.52;101295.81;5079231;28;20047;-70
2023/09/18 03:21:03;;;;;;;3.63;2.22;;;;;;;17.61;95.42;101281.09;5060073;28;20043;-70
2023/09/18 03:23:28;;;;;;;3.00;2.10;;;;;;;17.49;96.26;101255.78;5067306;28;20034;-71
2023/09/18 03:25:54;;;;;;;5.47;2.45;;;;;;;17.59;96.17;101254.13;5050737;28;20128;-70
2023/09/18 03:28:19;;;;;;;4.50;2.30;;;;;;;17.50;96.18;101246.53;5083335;28;20039;-71
2023/09/18 03:30:45;;;;;;;3.85;2.00;;;;;;;17.68;95.52;101243.72;5085255;28;20442;-70
2023/09/18 03:33:10;;;;;;;4.47;2.42;;;;;;;17.75;94.91;101239.00;5086604;28;20052;-71
2023/09/18 03:35:47;;;;;;;2.47;2.00;;;;;;;17.31;98.16;101222.13;5082678;28;20099;-70
2023/09/18 03:38:13;;;;;;;4.85;2.45;;;;;;;17.47;96.96;101220.63;5061949;28;20414;-70
2023/09/18 03:40:39;;;;;;;5.68;2.22;;;;;;;17.67;96.06;101211.28;5050120;28;20020;-71
2023/09/18 03:43:04;;;;;;;3.05;2.10;;;;;;;17.72;95.69;101211.44;5083893;28;20434;-70
2023/09/18 03:45:29;;;;;;;3.38;2.20;;;;;;;17.59;96.05;101193.44;5064519;28;20435;-71
2023/09/18 03:47:55;;;;;;;4.03;2.08;;;;;;;17.31;97.96;101191.38;5049755;28;20032;-70
2023/09/18 03:50:22;;;;;;;4.10;2.20;;;;;;;17.75;95.72;101203.63;5086195;28;20020;-71
2023/09/18 03:52:47;;;;;;;3.25;2.00;;;;;;;17.70;95.56;101192.59;5070432;28;20090;-70
2023/09/18 03:55:13;;;;;;;3.65;1.90;;;;;;;17.77;94.68;101179.72;5068030;28;20036;-69
2023/09/18 03:57:39;;;;;;;5.78;2.17;;;;;;;17.66;95.61;101190.59;5050523;28;20033;-71
2023/09/18 04:00:07;;;;;;;3.80;2.22;;;;;;;17.82;94.46;101168.97;5087016;28;20025;-70
2023/09/18 04:02:32;;;;;;;3.70;2.20;;;;;;;17.81;94.22;101161.88;5050813;28;20041;-70
2023/09/18 04:04:58;;;;;;;3.63;2.00;;;;;;;17.83;94.31;101167.06;5071645;28;20091;-71
2023/09/18 04:07:23;;;;;;;4.57;2.50;;;;;;;17.80;94.96;101151.19;5070466;28;20035;-70
2023/09/18 04:09:49;;;;;;;6.10;2.30;;;;;;;17.96;93.55;101136.84;5087311;28;20051;-69
2023/09/18 04:12:15;;;;;;;5.80;2.17;;;;;;;17.92;94.15;101137.59;5083216;28;20551;-72
2023/09/18 04:14:41;;;;;;;3.33;2.50;;;;;;;17.75;94.62;101121.97;5074460;28;20067;-72
2023/09/18 04:17:06;;;;;;;3.97;2.00;;;;;;;17.83;94.33;101118.88;5078798;28;20055;-72
2023/09/18 04:19:32;;;;;;;5.13;2.13;;;;;;;17.67;94.52;101095.09;5060841;28;20058;-70
2023/09/18 04:21:57;;;;;;;3.47;2.25;;;;;;;17.98;93.43;101112.94;5060830;28;20029;-70
2023/09/18 04:24:23;;;;;;;3.67;2.30;;;;;;;17.72;95.40;101103.38;5060758;28;20029;-71
2023/09/18 04:26:50;;;;;;;3.45;2.00;;;;;;;17.97;93.15;101096.84;5061437;28;20025;-70
2023/09/18 04:29:16;;;;;;;4.35;2.20;;;;;;;18.08;92.60;101106.88;5061312;28;20028;-70
2023/09/18 04:31:42;;;;;;;5.00;2.17;;;;;;;18.06;92.57;101093.50;5078606;28;20033;-69
2023/09/18 04:34:07;;;;;;;4.20;1.98;;;;;;;17.92;92.80;101072.25;5060271;28;20032;-70
2023/09/18 04:36:33;;;;;;;4.45;2.00;;;;;;;17.96;92.94;101078.84;5077461;28;20020;-71
2023/09/18 04:38:58;;;;;;;3.40;1.98;;;;;;;18.02;92.81;101077.91;5060114;28;20041;-70
2023/09/18 04:41:23;;;;;;;3.05;1.70;;;;;;;17.99;92.50;101076.47;5060941;28;20036;-70
2023/09/18 04:43:50;;;;;;;3.88;1.80;;;;;;;17.87;93.28;101083.84;5059096;28;20079;-70
2023/09/18 04:46:16;;;;;;;4.60;2.00;;;;;;;17.78;94.01;101077.97;5061046;28;20033;-70
2023/09/18 04:48:41;;;;;;;4.85;2.10;;;;;;;18.06;92.19;101077.16;5078132;28;20067;-70
2023/09/18 04:51:07;;;;;;;4.95;2.10;;;;;;;17.75;94.03;101078.41;5078899;28;20029;-70
2023/09/18 04:53:32;;;;;;;5.00;1.88;;;;;;;18.13;91.84;101077.00;5027580;28;20029;-70
2023/09/18 04:55:58;;;;;;;2.45;2.05;;;;;;;17.97;91.60;101072.34;5078515;28;20127;-70
2023/09/18 04:58:23;;;;;;;3.28;2.03;;;;;;;18.02;91.96;101073.28;5060996;28;20445;-70
2023/09/18 05:00:56;;;;;;;4.65;2.20;;;;;;;18.04;91.04;101071.13;5077989;28;20037;-69
2023/09/18 05:03:22;;;;;;;4.45;2.25;;;;;;;18.16;90.67;101071.09;5057146;28;20091;-70
2023/09/18 05:05:48;;;;;;;3.60;1.98;;;;;;;18.11;90.97;101065.53;5058334;28;20433;-69
2023/09/18 05:08:13;;;;;;;3.65;1.88;;;;;;;17.98;91.45;101050.31;5058711;28;20380;-69
2023/09/18 05:10:39;;;;;;;2.38;1.63;;;;;;;18.14;90.64;101066.94;5055650;28;20035;-69
2023/09/18 05:13:04;;;;;;;3.20;2.10;;;;;;;18.03;91.00;101057.75;5059294;28;20039;-71
2023/09/18 05:15:30;;;;;;;4.63;2.13;;;;;;;18.25;90.26;101049.75;5060295;28;20024;-72
2023/09/18 05:17:57;;;;;;;6.85;2.00;;;;;;;18.28;89.23;101032.91;5058334;28;20020;-70
2023/09/18 05:20:28;;;;;;;2.90;1.95;;;;;;;18.33;89.29;101043.06;5057699;28;20034;-71
2023/09/18 05:22:55;;;;;;;6.55;2.25;;;;;;;18.26;89.76;101033.13;5058983;28;20036;-71
2023/09/18 05:25:26;;;;;;;6.18;2.13;;;;;;;18.40;88.44;101036.38;5076025;28;20028;-72
2023/09/18 05:27:56;;;;;;;2.72;1.90;;;;;;;18.00;89.49;101031.84;5075206;28;20020;-70
2023/09/18 05:30:25;;;;;;;6.53;2.55;;;;;;;18.14;89.82;101017.91;5075135;28;20399;-70
2023/09/18 05:32:50;;;;;;;4.38;2.10;;;;;;;18.42;88.07;101033.44;5058291;28;20024;-70
2023/09/18 05:35:17;;;;;;;5.88;2.30;;;;;;;18.53;87.31;101038.78;5082003;28;20043;-69
2023/09/18 05:37:43;;;;;;;3.58;2.00;;;;;;;18.23;88.99;101016.47;5078524;28;20033;-70
2023/09/18 05:40:10;;;;;;;4.07;2.28;;;;;;;18.30;88.35;101015.22;5059853;28;20028;-69
2023/09/18 05:42:45;;;;;;;3.38;1.80;;;;;;;18.49;87.20;101020.47;5059605;28;20441;-70
2023/09/18 05:45:12;;;;;;;3.72;1.90;;;;;;;18.44;87.42;101015.78;5044426;28;20040;-71
2023/09/18 05:47:38;;;;;;;3.40;1.70;;;;;;;18.41;87.69;101007.22;5077314;28;20511;-70
2023/09/18 05:50:07;;;;;;;3.72;1.80;;;;;;;18.47;87.44;101006.25;5077259;28;20032;-70
2023/09/18 05:52:34;;;;;;;4.18;2.13;;;;;;;18.69;86.01;101009.91;5074427;28;20032;-70
2023/09/18 05:55:03;;;;;;;2.88;1.83;;;;;;;18.40;86.27;101002.88;5076356;28;20040;-69
2023/09/18 05:57:28;;;;;;;4.45;1.77;;;;;;;18.51;86.67;100996.53;5041780;28;20029;-69
2023/09/18 05:59:57;;;;;;;4.70;2.00;;;;;;;18.48;86.83;101002.47;5058587;28;20032;-70
2023/09/18 06:02:24;;;;;;;5.43;2.08;;;;;;;18.75;85.39;100997.22;5075272;28;20041;-69
2023/09/18 06:05:00;;;;;;;7.28;1.88;;;;;;;18.73;85.19;101002.91;5072144;28;20045;-69
2023/09/18 06:07:29;;;;;;;5.78;2.10;;;;;;;18.80;84.61;101004.63;5075052;28;20024;-70
2023/09/18 06:09:56;;;;;;;8.38;2.10;;;;;;;18.74;84.92;100995.53;5056775;28;20024;-70
2023/09/18 06:12:22;;;;;;;5.40;1.83;;;;;;;18.70;84.89;100988.91;5041119;28;20055;-70
2023/09/18 06:14:48;;;;;;;2.63;1.90;;;;;;;18.81;84.46;100998.09;5076709;28;20036;-70
2023/09/18 06:17:17;;;;;;;5.53;1.95;;;;;;;18.78;84.67;100994.81;5082830;28;20021;-70
2023/09/18 06:19:44;;;;;;;3.22;1.90;;;;;;;18.79;84.21;100962.91;5065232;28;20059;-71
2023/09/18 06:22:10;;;;;;;2.90;1.80;;;;;;;18.80;84.21;100971.91;5063699;28;20060;-71
2023/09/18 06:24:35;;;;;;;5.55;2.00;;;;;;;19.10;82.79;100974.25;5066938;28;20033;-70
2023/09/18 06:27:04;;;;;;;4.25;2.20;;;;;;;19.08;82.44;100958.16;5080390;28;20059;-71
2023/09/18 06:29:30;;;;;;;3.60;1.80;;;;;;;18.89;82.66;100930.34;5062584;28;20066;-70
2023/09/18 06:31:55;;;;;;;4.65;2.13;;;;;;;18.68;84.74;100942.84;5063694;28;20103;-71
2023/09/18 06:34:21;;;;;;;5.15;2.35;;;;;;;18.80;83.96;100903.75;5062338;28;20066;-71
2023/09/18 06:36:46;;;;;;;5.05;1.98;;;;;;;18.75;83.66;100908.06;5047215;28;20103;-71
2023/09/18 06:39:12;;;;;;;4.47;2.00;;;;;;;18.63;84.83;100892.88;5045601;28;20036;-70
2023/09/18 06:41:37;;;;;;;5.30;1.95;;;;;;;18.67;83.17;100853.94;5045469;28;20557;-70
2023/09/18 06:44:03;;;;;;;3.92;1.83;;;;;;;19.04;82.30;100888.00;5063087;28;20473;-72
2023/09/18 06:46:32;;;;;;;4.22;2.00;;;;;;;19.10;82.58;100889.72;5063253;28;20036;-70
2023/09/18 06:48:59;;;;;;;3.75;2.10;;;;;;;18.94;83.45;100889.53;5080036;28;20024;-70
2023/09/18 06:51:26;;;;;;;3.50;2.08;;;;;;;18.97;82.62;100871.81;5084474;28;20044;-71
2023/09/18 06:53:51;;;;;;;2.85;1.80;;;;;;;18.93;83.14;100897.94;5065459;28;20024;-71
2023/09/18 06:56:16;;;;;;;3.38;1.85;;;;;;;19.12;82.61;100884.84;5081462;28;20024;-71
2023/09/18 06:58:42;;;;;;;4.07;2.03;;;;;;;19.19;81.75;100885.47;5072546;28;20113;-69
2023/09/18 07:01:09;;;;;;;3.25;1.65;;;;;;;19.01;82.23;100862.06;5063641;28;20116;-70
2023/09/18 07:03:36;;;;;;;5.88;2.15;;;;;;;19.22;81.77;100869.41;5082139;28;20076;-72
2023/09/18 07:06:02;;;;;;;2.72;2.13;;;;;;;19.15;82.63;100874.25;5051511;28;20043;-72
2023/09/18 07:08:28;;;;;;;4.53;2.22;;;;;;;19.25;81.58;100874.34;5073188;28;20051;-71
2023/09/18 07:10:53;;;;;;;3.05;2.08;;;;;;;19.29;81.19;100854.75;5056058;28;20028;-72
2023/09/18 07:13:18;;;;;;;5.63;2.30;;;;;;;19.48;80.73;100856.88;5075252;28;20036;-71
2023/09/18 07:15:44;;;;;;;3.42;2.22;;;;;;;19.45;80.99;100868.31;5094001;28;20028;-72
2023/09/18 07:18:14;;;;;;;4.70;2.60;;;;;;;19.58;80.01;100875.25;5070008;28;20103;-72
2023/09/18 07:20:40;;;;;;;4.68;2.10;;;;;;;19.32;80.55;100860.53;5089365;28;20024;-72
2023/09/18 07:23:05;;;;;;;5.78;2.03;;;;;;;19.45;81.45;100875.66;5045401;28;20032;-69
2023/09/18 07:25:31;;;;;;;5.70;2.42;;;;;;;19.64;80.28;100871.53;5063541;28;20037;-70
2023/09/18 07:27:56;;;;;;;3.42;2.08;;;;;;;19.47;80.07;100848.97;5062969;28;20033;-70
2023/09/18 07:30:26;;;;;;;7.93;2.50;;;;;;;19.71;79.79;100871.34;5062585;28;20029;-71
2023/09/18 07:32:57;;;;;;;6.40;2.03;;;;;;;19.79;79.40;100868.13;5062264;28;20031;-71
2023/09/18 07:35:27;;;;;;;3.28;1.80;;;;;;;19.82;79.30;100858.59;5062329;28;20087;-71
2023/09/18 07:37:52;;;;;;;3.88;1.70;;;;;;;19.86;79.05;100868.72;5063294;28;20051;-71
2023/09/18 07:40:18;;;;;;;2.80;1.80;;;;;;;19.85;79.19;100861.63;5063965;28;20032;-72
2023/09/18 07:42:44;;;;;;;2.90;2.08;;;;;;;19.71;79.82;100858.50;5060091;28;20024;-72
2023/09/18 07:45:10;;;;;;;4.80;1.98;;;;;;;19.90;78.54;100858.09;5078650;28;20032;-73
2023/09/18 07:47:35;;;;;;;3.83;1.95;;;;;;;19.76;79.75;100840.50;5050730;28;20096;-72
2023/09/18 07:50:01;;;;;;;3.78;1.90;;;;;;;20.00;78.71;100846.44;5073723;28;20013;-72
2023/09/18 07:52:27;;;;;;;6.78;2.10;;;;;;;19.91;78.64;100844.22;5071879;28;20189;-74
2023/09/18 07:54:52;;;;;;;4.88;2.00;;;;;;;19.76;79.54;100822.22;5070007;28;20039;-72
2023/09/18 07:57:19;;;;;;;3.53;2.13;;;;;;;19.97;78.53;100828.69;5078843;28;20092;-74
2023/09/18 07:59:46;;;;;;;3.63;1.95;;;;;;;19.80;79.16;100825.25;5060712;28;20466;-72
2023/09/18 08:02:11;;;;;;;2.92;1.70;;;;;;;20.03;78.41;100824.06;5079168;28;20437;-71
2023/09/18 08:04:37;;;;;;;4.40;1.70;;;;;;;19.83;79.10;100822.81;5078302;28;20060;-71
2023/09/18 08:07:05;;;;;;;4.95;1.75;;;;;;;20.08;77.71;100822.22;5044908;28;20472;-71
2023/09/18 08:09:31;;;;;;;2.65;1.92;;;;;;;20.18;77.68;100822.28;5078830;28;20082;-71
2023/09/18 08:11:57;;;;;;;6.45;1.95;;;;;;;20.23;76.90;100809.75;5053483;28;20033;-73
2023/09/18 08:14:22;;;;;;;5.40;1.63;;;;;;;20.07;78.10;100819.75;5080390;28;20029;-73
2023/09/18 08:16:48;;;;;;;3.75;1.73;;;;;;;20.33;77.00;100809.78;5050095;28;20028;-75
2023/09/18 08:19:16;;;;;;;2.97;1.90;;;;;;;20.01;78.09;100798.94;5085910;28;20058;-73
2023/09/18 08:21:42;;;;;;;3.35;1.92;;;;;;;20.37;76.72;100786.34;5048582;28;20035;-74
2023/09/18 08:24:08;;;;;;;3.03;1.52;;;;;;;20.60;75.69;100798.78;5070107;28;20040;-74
2023/09/18 08:26:33;;;;;;;4.90;1.77;;;;;;;20.38;76.64;100802.47;5069702;28;20094;-71
2023/09/18 08:28:59;;;;;;;3.95;1.77;;;;;;;20.67;75.60;100785.69;5059762;28;20507;-73
2023/09/18 08:31:24;;;;;;;4.63;1.80;;;;;;;20.99;74.34;100793.75;5082061;28;20051;-72
2023/09/18 08:33:50;;;;;;;2.63;1.70;;;;;;;21.16;73.74;100781.75;5087703;28;20028;-71
2023/09/18 08:36:16;;;;;;;3.40;1.80;;;;;;;21.22;73.37;100788.88;5084232;28;20059;-72
2023/09/18 08:38:43;;;;;;;5.07;2.10;;;;;;;21.24;72.77;100789.44;5068555;28;20032;-72
2023/09/18 08:41:11;;;;;;;2.08;1.75;;;;;;;21.33;72.50;100787.81;5029214;28;20147;-71
2023/09/18 08:43:40;;;;;;;3.33;1.90;;;;;;;21.47;72.40;100791.69;5060867;28;20036;-73
2023/09/18 08:46:06;;;;;;;7.78;2.63;;;;;;;21.43;72.28;100798.81;5062043;28;20016;-72
2023/09/18 08:48:36;;;;;;;4.65;1.88;;;;;;;21.61;71.68;100791.16;5062911;28;20534;-72
2023/09/18 08:51:04;;;;;;;6.00;2.05;;;;;;;21.53;71.88;100782.38;5078477;28;20341;-72
2023/09/18 08:53:34;;;;;;;3.95;2.10;;;;;;;21.37;72.82;100779.91;5065511;28;20020;-72
2023/09/18 08:56:03;;;;;;;3.78;1.80;;;;;;;21.42;72.54;100774.44;5077916;28;20039;-73
2023/09/18 08:58:35;;;;;;;5.43;2.40;;;;;;;21.49;72.29;100764.88;5078253;28;20035;-72
2023/09/18 09:01:03;;;;;;;4.95;2.10;;;;;;;21.68;71.80;100767.06;5079207;28;20111;-72
2023/09/18 09:03:30;;;;;;;4.47;2.05;;;;;;;21.58;71.88;100757.72;5078069;28;20139;-72
2023/09/18 09:06:01;;;;;;;4.15;2.03;;;;;;;21.50;72.16;100730.91;5060470;28;20049;-71
2023/09/18 09:08:27;;;;;;;6.85;2.50;;;;;;;21.52;72.38;100747.06;5061960;28;20041;-73
2023/09/18 09:10:53;;;;;;;3.95;2.08;;;;;;;21.48;72.02;100724.88;5063078;28;20033;-72
2023/09/18 09:13:25;;;;;;;3.95;2.20;;;;;;;21.46;72.68;100743.53;5060214;28;20033;-72
2023/09/18 09:15:56;;;;;;;4.82;2.10;;;;;;;21.38;72.83;100730.34;5078138;28;20028;-74
2023/09/18 09:18:23;;;;;;;5.55;2.38;;;;;;;21.30;73.51;100722.66;5062019;28;20027;-71
2023/09/18 09:21:04;;;;;;;4.38;2.20;;;;;;;21.12;74.88;100721.25;5086752;28;20032;-73
2023/09/18 09:23:53;;;;;;;6.22;2.13;;;;;;;20.77;77.53;100708.34;5070120;28;20088;-72
2023/09/18 09:26:21;;;;;;;3.97;2.10;;;;;;;20.58;79.07;100708.84;5068459;28;20032;-72
2023/09/18 09:28:48;;;;;;;4.82;2.70;;;;;;;20.70;78.88;100705.88;5064315;28;20024;-72
2023/09/18 09:31:24;;;;;;;4.35;2.47;;;;;;;20.79;78.74;100693.31;5084073;28;20028;-72
2023/09/18 09:33:55;;;;;;;3.80;2.65;;;;;;;20.38;81.45;100687.69;5084813;28;20039;-70
2023/09/18 09:36:22;;;;;;;4.68;2.42;;;;;;;20.61;79.73;100680.97;5085453;28;20017;-71
2023/09/18 09:38:47;;;;;;;4.82;2.40;;;;;;;20.40;81.40;100649.16;5083743;28;20024;-71
2023/09/18 09:41:14;;;;;;;3.88;2.50;;;;;;;20.53;81.37;100658.78;5064757;28;20071;-70
2023/09/18 09:43:42;;;;;;;4.75;2.70;;;;;;;20.64;81.23;100653.09;5059714;28;20055;-71
2023/09/18 09:46:18;;;;;;;6.93;2.72;;;;;;;20.85;80.08;100650.38;5078121;28;20032;-70
2023/09/18 09:49:06;;;;;;;3.50;2.60;;;;;;;20.83;80.42;100642.47;5061043;28;20025;-71
2023/09/18 09:51:34;;;;;;;5.80;2.80;;;;;;;20.79;80.46;100635.88;5085557;28;20080;-72
2023/09/18 09:54:00;;;;;;;4.60;2.75;;;;;;;20.88;80.53;100639.72;5066652;28;20025;-71
2023/09/18 09:56:45;;;;;;;4.45;2.70;;;;;;;21.24;79.04;100647.13;5066806;28;20170;-71
2023/09/18 09:59:13;;;;;;;6.25;2.95;;;;;;;21.04;79.62;100637.81;5088309;28;20273;-71
2023/09/18 10:01:38;;;;;;;4.15;3.35;;;;;;;21.33;78.95;100648.22;5067878;28;20029;-71
2023/09/18 10:04:17;;;;;;;4.97;3.20;;;;;;;21.56;77.66;100641.41;5069458;28;20523;-71
2023/09/18 10:06:46;;;;;;;3.38;2.83;;;;;;;21.34;77.90;100634.28;5083652;28;20062;-72
2023/09/18 10:09:13;;;;;;;4.60;3.22;;;;;;;21.72;77.19;100625.72;5068959;28;20035;-71
2023/09/18 10:11:45;;;;;;;5.30;3.10;;;;;;;21.73;76.81;100628.22;5086643;28;20032;-70
2023/09/18 10:14:29;;;;;;;4.72;3.17;;;;;;;21.92;76.17;100605.69;5069856;28;20425;-71
2023/09/18 10:16:56;;;;;;;4.55;3.55;;;;;;;21.99;76.36;100628.94;5086604;28;20169;-71
2023/09/18 10:19:28;;;;;;;5.10;3.50;;;;;;;21.64;78.00;100596.19;5070803;28;20088;-70
2023/09/18 10:22:20;;;;;;;6.68;3.78;;;;;;;21.76;77.03;100592.06;5074374;28;20051;-70
2023/09/18 10:24:49;;;;;;;5.95;3.55;;;;;;;21.92;77.29;100594.72;5070959;28;20032;-71
2023/09/18 10:27:17;;;;;;;4.60;3.25;;;;;;;22.10;76.72;100585.88;5071056;28;20024;-71
2023/09/18 10:29:45;;;;;;;6.30;3.65;;;;;;;21.85;77.93;100594.19;5070326;28;20047;-71
2023/09/18 10:32:13;;;;;;;5.40;3.53;;;;;;;21.68;78.30;100575.34;5053781;28;20293;-71
2023/09/18 10:34:40;;;;;;;8.68;4.00;;;;;;;21.91;77.13;100566.50;5039180;28;20035;-71
2023/09/18 10:37:08;;;;;;;4.88;3.63;;;;;;;22.35;75.84;100562.19;5071732;28;20111;-71
2023/09/18 10:39:39;;;;;;;5.20;3.63;;;;;;;22.32;76.49;100551.78;5072894;28;20669;-71
2023/09/18 10:42:07;;;;;;;10.70;3.92;;;;;;;22.57;74.79;100553.56;5070471;28;20048;-71
2023/09/18 10:44:34;;;;;;;4.28;3.50;;;;;;;22.42;75.67;100552.56;5086484;28;20463;-71
2023/09/18 10:47:02;;;;;;;5.60;3.67;;;;;;;22.50;74.94;100562.09;5072125;28;20048;-71
2023/09/18 10:49:28;;;;;;;5.57;3.90;;;;;;;21.99;76.91;100540.47;5070337;28;20085;-71
2023/09/18 10:51:55;;;;;;;8.73;3.67;;;;;;;22.37;75.85;100555.34;5071097;28;20099;-71
2023/09/18 10:54:23;;;;;;;5.85;3.90;;;;;;;22.37;75.81;100547.13;5091989;28;20059;-71
2023/09/18 10:56:49;;;;;;;10.02;3.90;;;;;;;22.10;76.21;100502.88;5092023;28;20017;-71
2023/09/18 10:59:16;;;;;;;7.70;4.78;;;;;;;22.07;77.84;100539.88;5089303;28;20024;-71
2023/09/18 11:01:43;;;;;;;4.90;3.65;;;;;;;22.14;77.36;100528.59;5072203;28;20044;-71
2023/09/18 11:04:10;;;;;;;6.07;4.18;;;;;;;22.35;76.82;100521.09;5037262;28;20049;-71
2023/09/18 11:06:54;;;;;;;7.55;4.03;;;;;;;22.31;77.04;100518.09;5039985;28;20040;-71
2023/09/18 11:09:27;;;;;;;5.82;4.03;;;;;;;22.36;76.61;100520.81;5053784;28;20033;-72
2023/09/18 11:11:57;;;;;;;8.43;3.80;;;;;;;22.20;77.18;100525.56;5054083;28;20029;-71
2023/09/18 11:14:41;;;;;;;7.00;4.00;;;;;;;22.40;76.43;100510.91;5054108;28;20267;-71
2023/09/18 11:17:27;;;;;;;4.95;3.80;;;;;;;22.39;76.38;100490.09;5054799;28;20055;-71
2023/09/18 11:20:02;;;;;;;5.55;3.80;;;;;;;22.02;79.01;100502.38;5068913;28;20037;-73
2023/09/18 11:22:27;;;;;;;5.38;4.07;;;;;;;21.84;79.86;100491.22;5050280;28;20057;-72
2023/09/18 11:24:52;;;;;;;5.13;3.90;;;;;;;21.85;80.92;100476.41;5048507;28;20029;-72